NEODyS-2

Near Earth Objects - Dynamic Site
NEODyS ∴ Observatories ∴ Site 691 ∴ Obs & residuals
Contact »
691  ▹ 
OBSERVATIONS AND RESIDUALS

691-Steward Observatory, Kitt Peak-Spacewatch

Detections | Residuals | Detections & Residuals

[1-200] [201-400] [401-600] [601-800] [801-1000] [1001-1200] [1201-1400] [1401-1600] [1601-1800] [1801-2000] [2001-2200] [2201-2400] [2401-2600] [2601-2800] [2801-3000] [3001-3200] [3201-3400] [3401-3600] [3601-3800] [3801-4000] [4001-4200] [4201-4400] [4401-4600] [4601-4800] [4801-5000] [5001-5200] [5201-5400] [5401-5600] [5601-5800] [5801-6000] [6001-6200] [6201-6400] [6401-6600] [6601-6800] [6801-7000] [7001-7200] [7201-7400] [7401-7600] [7601-7800] [7801-8000] [8001-8200] [8201-8400] [8401-8600] [8601-8800] [8801-9000] [9001-9200] [9201-9400] [9401-9600] [9601-9800] [9801-10000] [10001-10200] [10201-10400] [10401-10600] [10601-10800] [10801-11000] [11001-11200] [11201-11400] [11401-11600] [11601-11800] [11801-12000] [12001-12200] [12201-12400] [12401-12600] [12601-12800] [12801-13000] [13001-13200] [13201-13400] [13401-13600] [13601-13800] [13801-14000] [14001-14200] [14201-14400] [14401-14600] [14601-14800] [14801-15000] [15001-15200] [15201-15400] [15401-15600] [15601-15800] [15801-16000] [16001-16200] [16201-16400] [16401-16600] [16601-16800] [16801-17000] [17001-17200] [17201-17400] [17401-17600] [17601-17800] [17801-18000] [18001-18200] [18201-18400] [18401-18600] [18601-18800] [18801-19000] [19001-19200] [19201-19400] [19401-19600] [19601-19800] [19801-20000] [20001-20200] [20201-20400] [20401-20600] [20601-20800] [20801-21000] [21001-21200] [21201-21400] [21401-21600] [21601-21800] [21801-22000] [22001-22200] [22201-22400] [22401-22600] [22601-22800] [22801-23000] [23001-23200] [23201-23400] [23401-23600] [23601-23800] [23801-24000] [24001-24200] [24201-24400] [24401-24600] [24601-24800] [24801-25000] [25001-25200] [25201-25400] [25401-25600] [25601-25800] [25801-26000] [26001-26200] [26201-26400] [26401-26600] [26601-26800] [26801-27000] [27001-27200] [27201-27400] [27401-27600] [27601-27800] [27801-28000] [28001-28200] [28201-28400] [28401-28600] [28601-28800] [28801-29000] [29001-29200] [29201-29400] [29401-29600] [29601-29800] [29801-30000] [30001-30200] [30201-30400] [30401-30600] [30601-30800] [30801-31000] [31001-31200] [31201-31400] [31401-31600] [31601-31800] [31801-32000] [32001-32200] [32201-32400] [32401-32600] [32601-32800] [32801-33000] [33001-33200] [33201-33400] [33401-33600] [33601-33800] [33801-34000] [34001-34200] [34201-34400] [34401-34600] [34601-34800] [34801-35000] [35001-35200] [35201-35400] [35401-35600] [35601-35800] [35801-36000] [36001-36200] [36201-36400] [36401-36600] [36601-36800] [36801-37000] [37001-37200] [37201-37400] [37401-37600] [37601-37800] [37801-38000] [38001-38200] [38201-38400] [38401-38600] [38601-38800] [38801-39000] [39001-39200] [39201-39400] [39401-39600] [39601-39800] [39801-40000] [40001-40200] [40201-40400] [40401-40600] [40601-40800] [40801-41000] [41001-41200] [41201-41400] [41401-41600] [41601-41800] [41801-42000] [42001-42200] [42201-42400] [42401-42600] [42601-42800] [42801-43000] [43001-43200] [43201-43400] [43401-43600] [43601-43800] [43801-44000] [44001-44200] [44201-44400] [44401-44600] [44601-44800] [44801-45000] [45001-45200] [45201-45400] [45401-45600] [45601-45800] [45801-46000] [46001-46200] [46201-46400] [46401-46600] [46601-46800] [46801-47000] [47001-47200] [47201-47400] [47401-47600] [47601-47800] [47801-48000] [48001-48200] [48201-48400] [48401-48600] [48601-48800] [48801-49000] [49001-49200] [49201-49400] [49401-49600] [49601-49800] [49801-50000] [50001-50200] [50201-50388]

Designation T Tech N Date Right Ascension Declination Apparent Magnitude Star Catalog Site code χ Used A Used M
yr-mo-day precision hr:min:sec precision rms F bias residual deg min sec precision rms F bias residual mag/col rms residual
2005YT55 O C 2006-02-24.14087 1.000E-05 09:07:09.360 1.500E-01 0.500 F 0.346 -0.409 +18° 34' 52.20" 1.000E-01 0.500 F 0.305 0.053 19.1 V 0.70 0.26 c 691 0.84 Yes Yes
2006EV52 O C H 2006-02-24.33751 1.000E-05 12:03:34.580 1.500E-01 0.500 F 0.389 0.263 +01° 22' 51.60" 1.000E-01 0.500 F 0.450 0.760 20.9 V 0.70 -0.47 c 691 1.61 Yes Yes
2006EV52 O C H 2006-02-24.35477 1.000E-05 12:03:33.590 1.500E-01 0.500 F 0.389 -0.517 +01° 22' 59.50" 1.000E-01 0.500 F 0.450 -0.380 21.6 V 0.70 0.23 c 691 1.29 Yes Yes
2006EV52 O C H 2006-02-24.37199 1.000E-05 12:03:32.700 1.500E-01 0.500 F 0.389 0.183 +01° 23' 08.90" 1.000E-01 0.500 F 0.450 -0.002 21.6 V 0.70 0.23 c 691 0.37 Yes Yes
2000GU127 O C 2006-02-24.39022 1.000E-05 12:15:28.010 1.500E-01 0.500 F 0.619 -0.751 -01° 52' 25.60" 1.000E-01 0.500 F 0.330 -0.117 21.3 V 0.70 -0.19 c 691 1.53 Yes Yes
2004RY109 O C 2006-02-24.40003 1.000E-05 12:37:45.610 1.500E-01 0.500 F 0.563 -0.139 -03° 24' 34.60" 1.000E-01 0.500 F 0.318 -0.055 21.2 V 0.70 0.26 c 691 0.30 Yes Yes
2000GU127 O C 2006-02-24.40749 1.000E-05 12:15:27.090 1.500E-01 0.500 F 0.619 -0.315 -01° 52' 16.60" 1.000E-01 0.500 F 0.330 -0.349 21.8 V 0.70 0.31 c 691 0.94 Yes Yes
2004RY109 O C 2006-02-24.41736 1.000E-05 12:37:44.240 1.500E-01 0.500 F 0.563 -0.385 -03° 24' 47.20" 1.000E-01 0.500 F 0.318 -0.125 21.2 V 0.70 0.27 c 691 0.82 Yes Yes
2000GU127 O C 2006-02-24.42482 1.000E-05 12:15:26.120 1.500E-01 0.500 F 0.619 -0.573 -01° 52' 07.40" 1.000E-01 0.500 F 0.330 -0.422 21.4 V 0.70 -0.09 c 691 1.43 Yes Yes
2004RY109 O C 2006-02-24.43463 1.000E-05 12:37:42.900 1.500E-01 0.500 F 0.563 -0.239 -03° 24' 59.30" 1.000E-01 0.500 F 0.318 0.258 21.0 V 0.70 0.07 c 691 0.72 Yes Yes
1998KV2 O C 2006-02-24.50870 1.000E-05 16:26:33.110 1.500E-01 0.500 F 0.371 0.015 -06° 31' 59.10" 1.000E-01 0.500 F 0.281 -0.175 19.5 V 0.70 0.11 c 691 0.35 Yes Yes
1998KV2 O C 2006-02-24.52108 1.000E-05 16:26:34.290 1.500E-01 0.500 F 0.371 0.246 -06° 32' 03.90" 1.000E-01 0.500 F 0.281 -0.099 19.6 V 0.70 0.21 c 691 0.53 Yes Yes
1998KV2 O C 2006-02-24.53347 1.000E-05 16:26:35.430 1.500E-01 0.500 F 0.371 -0.114 -06° 32' 08.70" 1.000E-01 0.500 F 0.281 -0.026 19.5 V 0.70 0.11 c 691 0.23 Yes Yes
2006CU O C H 2006-02-25.11394 1.000E-05 08:09:26.050 1.500E-01 0.500 F 0.261 0.497 +19° 25' 33.50" 1.000E-01 0.500 F 0.466 -0.830 21.5 V 0.70 -0.22 c 691 1.96 Yes Yes
2006CU O C H 2006-02-25.13254 1.000E-05 08:09:26.860 1.500E-01 0.500 F 0.261 -0.692 +19° 25' 40.50" 1.000E-01 0.500 F 0.466 -0.760 21.7 V 0.70 -0.02 c 691 2.07 Yes Yes
2019KB2 O C 2006-02-25.23187 1.000E-05 11:26:34.280 1.500E-01 0.500 F 0.582 -0.174 +10° 13' 10.40" 1.000E-01 0.500 F 0.135 0.099 20.6 V 0.70 0.19 c 691 0.42 Yes Yes
2019KB2 O C 2006-02-25.24923 1.000E-05 11:26:32.590 1.500E-01 0.500 F 0.582 0.151 +10° 13' 04.10" 1.000E-01 0.500 F 0.135 -0.331 20.6 V 0.70 0.19 c 691 0.76 Yes Yes
2019KB2 O C 2006-02-25.26659 1.000E-05 11:26:30.870 1.500E-01 0.500 F 0.582 0.102 +10° 12' 58.00" 1.000E-01 0.500 F 0.135 -0.547 20.7 V 0.70 0.30 c 691 1.16 Yes Yes
2005YT55 O C 2006-02-27.11643 1.000E-05 09:12:41.650 1.500E-01 0.500 F 0.302 -0.346 +18° 42' 41.00" 1.000E-01 0.500 F 0.315 -0.132 19.3 V 0.70 0.40 c 691 0.75 Yes Yes
2005YT55 O C 2006-02-27.13510 1.000E-05 09:12:43.660 1.500E-01 0.500 F 0.302 0.044 +18° 42' 44.40" 1.000E-01 0.500 F 0.315 0.092 19.7 V 0.70 0.80 c 691 0.21 Yes Yes
2005YT55 O C 2006-02-27.15377 1.000E-05 09:12:45.590 1.500E-01 0.500 F 0.302 -0.417 +18° 42' 47.30" 1.000E-01 0.500 F 0.315 -0.078 19.5 V 0.70 0.60 c 691 0.86 Yes Yes
1994CN2 O C 2006-02-27.27689 1.000E-05 11:45:07.540 1.500E-01 0.500 F 0.415 0.019 +04° 12' 44.70" 1.000E-01 0.500 F 0.297 0.014 19.7 V 0.70 0.24 c 691 0.05 Yes Yes
1994CN2 O C 2006-02-27.29419 1.000E-05 11:45:06.150 1.500E-01 0.500 F 0.415 -0.098 +04° 12' 54.40" 1.000E-01 0.500 F 0.297 0.198 19.6 V 0.70 0.14 c 691 0.44 Yes Yes
1994CN2 O C 2006-02-27.31148 1.000E-05 11:45:04.770 1.500E-01 0.500 F 0.415 -0.040 +04° 13' 03.70" 1.000E-01 0.500 F 0.297 -0.010 19.6 V 0.70 0.14 c 691 0.08 Yes Yes
2006DZ169 O C 2006-02-27.33390 1.000E-05 12:17:48.740 1.500E-01 0.500 F 0.542 0.102 +03° 16' 30.50" 1.000E-01 0.500 F 0.349 -0.158 19.9 V 0.70 0.08 c 691 0.38 Yes Yes
2006DZ169 O C 2006-02-27.35122 1.000E-05 12:17:47.820 1.500E-01 0.500 F 0.542 0.193 +03° 16' 34.60" 1.000E-01 0.500 F 0.349 -0.109 19.9 V 0.70 0.08 c 691 0.45 Yes Yes
2006DZ169 O C 2006-02-27.36855 1.000E-05 12:17:46.880 1.500E-01 0.500 F 0.542 0.018 +03° 16' 38.90" 1.000E-01 0.500 F 0.349 0.139 19.8 V 0.70 -0.02 c 691 0.28 Yes Yes
Kadlu O C 2006-02-27.38312 1.000E-05 12:32:13.970 1.500E-01 0.500 F 0.463 -1.810 +02° 03' 22.20" 1.000E-01 0.500 F 0.396 -0.775 19.4 V 0.70 -0.18 c 691 3.93 No Yes
2000GO82 O C 2006-02-27.39305 1.000E-05 12:23:27.330 1.500E-01 0.500 F 0.442 -0.127 +00° 09' 21.40" 1.000E-01 0.500 F 0.352 -0.719 21.0 V 0.70 -0.51 c 691 1.46 Yes Yes
Kadlu O C 2006-02-27.40048 1.000E-05 12:32:13.630 1.500E-01 0.500 F 0.463 0.210 +02° 03' 29.80" 1.000E-01 0.500 F 0.396 0.262 19.8 V 0.70 0.23 c 691 0.67 Yes Yes
2000GO82 O C 2006-02-27.41040 1.000E-05 12:23:26.380 1.500E-01 0.500 F 0.442 -0.283 +00° 09' 32.00" 1.000E-01 0.500 F 0.352 -0.327 21.6 V 0.70 0.09 c 691 0.87 Yes Yes
Kadlu O C 2006-02-27.41777 1.000E-05 12:32:13.140 1.500E-01 0.500 F 0.463 -0.039 +02° 03' 36.40" 1.000E-01 0.500 F 0.396 0.324 19.9 V 0.70 0.33 c 691 0.65 Yes Yes
2000GO82 O C 2006-02-27.42768 1.000E-05 12:23:25.380 1.500E-01 0.500 F 0.442 -1.245 +00° 09' 43.60" 1.000E-01 0.500 F 0.352 1.103 21.1 V 0.70 -0.41 c 691 3.32 No Yes
2006DZ O C 2006-03-02.18673 1.000E-05 11:00:53.500 1.500E-01 0.500 F 0.300 -0.013 +08° 54' 42.20" 1.000E-01 0.500 F 0.398 -0.381 19.7 V 0.70 0.22 c 691 0.82 Yes Yes
2006DN O C H 2006-03-02.19159 1.000E-05 11:13:00.800 1.500E-01 0.500 F 0.617 -1.426 +10° 12' 20.40" 1.000E-01 0.500 F 0.215 0.093 19.5 V 0.70 0.88 c 691 2.93 Yes Yes
2006DZ O C 2006-03-02.20406 1.000E-05 11:00:50.580 1.500E-01 0.500 F 0.300 -0.009 +08° 53' 39.20" 1.000E-01 0.500 F 0.398 -0.096 19.7 V 0.70 0.22 c 691 0.21 Yes Yes
2006DN O C H 2006-03-02.20892 1.000E-05 11:13:06.870 1.500E-01 0.500 F 0.617 -0.156 +10° 11' 59.00" 1.000E-01 0.500 F 0.215 -0.267 19.3 V 0.70 0.68 c 691 0.63 Yes Yes
2006DZ O C 2006-03-02.22138 1.000E-05 11:00:47.640 1.500E-01 0.500 F 0.300 -0.157 +08° 52' 35.40" 1.000E-01 0.500 F 0.398 -0.628 19.7 V 0.70 0.23 c 691 1.40 Yes Yes
Tara O C 2006-03-02.24329 1.000E-05 11:23:18.730 1.500E-01 0.500 F 0.421 -0.475 +02° 08' 08.10" 1.000E-01 0.500 F 0.430 -0.127 18.5 V 0.70 0.32 c 691 0.99 Yes Yes
Tara O C 2006-03-02.26053 1.000E-05 11:23:17.640 1.500E-01 0.500 F 0.421 -0.529 +02° 08' 25.50" 1.000E-01 0.500 F 0.430 -0.076 18.5 V 0.70 0.32 c 691 1.07 Yes Yes
Tara O C 2006-03-02.27786 1.000E-05 11:23:16.560 1.500E-01 0.500 F 0.421 -0.305 +02° 08' 42.90" 1.000E-01 0.500 F 0.430 -0.119 19.6 V 0.70 1.42 c 691 0.66 Yes Yes
2006EV52 O C 2006-03-02.29958 1.000E-05 11:57:58.010 1.500E-01 0.500 F 0.426 -0.692 +02° 17' 20.30" 1.000E-01 0.500 F 0.354 0.545 22.0 V 0.70 0.80 c 691 1.77 Yes Yes
2006EV52 O C 2006-03-02.31684 1.000E-05 11:57:56.980 1.500E-01 0.500 F 0.426 -0.317 +02° 17' 29.60" 1.000E-01 0.500 F 0.354 -0.016 21.4 V 0.70 0.21 c 691 0.64 Yes Yes
2006EV52 O C 2006-03-02.33411 1.000E-05 11:57:55.920 1.500E-01 0.500 F 0.426 -0.365 +02° 17' 39.20" 1.000E-01 0.500 F 0.354 -0.284 21.6 V 0.70 0.41 c 691 0.93 Yes Yes
2000GE2 O C 2006-03-02.35307 1.000E-05 12:14:14.120 1.500E-01 0.500 F 0.622 -0.413 -01° 17' 42.40" 1.000E-01 0.500 F 0.387 -0.070 21.0 V 0.70 0.18 c 691 0.84 Yes Yes
2006EH O C 2006-03-02.36534 1.000E-05 12:29:20.500 1.500E-01 0.500 F 0.524 -0.216 -02° 38' 50.90" 1.000E-01 0.500 F 0.068 -0.852 21.3 V 0.70 0.16 c 691 1.98 Yes Yes
2000GE2 O C 2006-03-02.37033 1.000E-05 12:14:12.970 1.500E-01 0.500 F 0.622 -0.267 -01° 17' 38.30" 1.000E-01 0.500 F 0.387 0.070 21.2 V 0.70 0.38 c 691 0.55 Yes Yes
2006EH O C 2006-03-02.38258 1.000E-05 12:29:19.450 1.500E-01 0.500 F 0.547 -0.316 -02° 38' 00.10" 1.000E-01 0.500 F 0.098 0.600 21.0 V 0.70 -0.14 c 691 1.55 Yes Yes
2000GE2 O C 2006-03-02.38758 1.000E-05 12:14:11.790 1.500E-01 0.500 F 0.622 -0.554 -01° 17' 34.60" 1.000E-01 0.500 F 0.387 -0.198 21.1 V 0.70 0.28 c 691 1.18 Yes Yes
2006EH O C 2006-03-02.39983 1.000E-05 12:29:18.410 1.500E-01 0.500 F 0.547 -0.224 -02° 37' 11.40" 1.000E-01 0.500 F 0.098 -0.046 21.3 V 0.70 0.16 c 691 0.52 Yes Yes
2005YT55 O C 2006-03-03.11115 1.000E-05 09:20:41.600 1.500E-01 0.500 F 0.374 0.368 +18° 47' 40.50" 1.000E-01 0.500 F 0.533 -0.531 c 691 1.32 Yes No
2005YT55 O C 2006-03-03.12696 1.000E-05 09:20:43.370 1.500E-01 0.500 F 0.374 -0.503 +18° 47' 42.10" 1.000E-01 0.500 F 0.533 -0.025 c 691 1.03 Yes No
2005YT55 O C 2006-03-03.14277 1.000E-05 09:20:45.210 1.500E-01 0.500 F 0.374 -0.174 +18° 47' 43.00" 1.000E-01 0.500 F 0.533 -0.143 c 691 0.46 Yes No
2000UV16 O C H 2006-03-03.21691 1.000E-05 10:58:36.220 1.500E-01 0.500 F 0.606 -0.856 +06° 24' 31.80" 1.000E-01 0.500 F 0.389 0.636 c 691 2.14 Yes No
2000UV16 O C H 2006-03-03.23424 1.000E-05 10:58:35.340 1.500E-01 0.500 F 0.606 0.920 +06° 24' 36.70" 1.000E-01 0.500 F 0.389 0.195 c 691 1.89 Yes No
2000UV16 O C H 2006-03-03.25158 1.000E-05 10:58:34.300 1.500E-01 0.500 F 0.606 0.339 +06° 24' 41.10" 1.000E-01 0.500 F 0.389 -0.746 c 691 1.64 Yes No
2006DY O C 2006-03-03.27112 1.000E-05 11:25:05.010 1.500E-01 0.500 F 0.632 -0.199 +06° 28' 47.30" 1.000E-01 0.500 F 0.575 0.053 c 691 0.42 Yes No
2006DB1 O C 2006-03-03.28598 1.000E-05 11:23:18.730 1.500E-01 0.500 F 0.618 -0.203 +04° 56' 15.40" 1.000E-01 0.500 F 0.419 -0.164 c 691 0.54 Yes No
2006DY O C 2006-03-03.28851 1.000E-05 11:25:03.620 1.500E-01 0.500 F 0.632 -0.387 +06° 29' 15.20" 1.000E-01 0.500 F 0.575 0.037 c 691 0.78 Yes No
2006DB1 O C 2006-03-03.30367 1.000E-05 11:23:18.000 1.500E-01 0.500 F 0.618 -0.288 +04° 55' 31.40" 1.000E-01 0.500 F 0.419 -0.032 c 691 0.59 Yes No
2006DY O C 2006-03-03.30620 1.000E-05 11:25:02.230 1.500E-01 0.500 F 0.632 -0.189 +06° 29' 43.70" 1.000E-01 0.500 F 0.575 0.159 c 691 0.50 Yes No
2006DB1 O C 2006-03-03.32107 1.000E-05 11:23:17.290 1.500E-01 0.500 F 0.618 -0.180 +04° 54' 47.80" 1.000E-01 0.500 F 0.419 -0.210 c 691 0.57 Yes No
Kadlu O C 2006-03-03.38570 1.000E-05 12:30:19.680 1.500E-01 0.500 F 0.499 -0.395 +02° 30' 16.20" 1.000E-01 0.500 F 0.466 -0.319 c 691 1.02 Yes No
2000GO82 O C H 2006-03-03.39928 1.000E-05 12:19:45.250 1.500E-01 0.500 F 0.364 0.472 +00° 50' 01.00" 1.000E-01 0.500 F 0.305 0.061 21.3 V 0.70 -0.08 c 691 0.95 Yes Yes
Kadlu O C 2006-03-03.40424 1.000E-05 12:30:19.030 1.500E-01 0.500 F 0.499 -0.345 +02° 30' 24.10" 1.000E-01 0.500 F 0.466 -0.347 c 691 0.98 Yes No
2000GO82 O C H 2006-03-03.41664 1.000E-05 12:19:44.160 1.500E-01 0.500 F 0.364 -0.390 +00° 50' 11.80" 1.000E-01 0.500 F 0.305 -0.050 21.6 V 0.70 0.22 c 691 0.79 Yes Yes
Kadlu O C 2006-03-03.42161 1.000E-05 12:30:18.420 1.500E-01 0.500 F 0.499 -0.315 +02° 30' 31.70" 1.000E-01 0.500 F 0.466 -0.174 c 691 0.72 Yes No
2000GO82 O C H 2006-03-03.43401 1.000E-05 12:19:43.150 1.500E-01 0.500 F 0.364 -0.047 +00° 50' 22.70" 1.000E-01 0.500 F 0.305 -0.070 21.9 V 0.70 0.52 c 691 0.17 Yes Yes
2006BA148 O C H 2006-03-04.11665 1.000E-05 09:33:36.550 1.500E-01 0.500 F 0.484 -0.492 +13° 04' 12.00" 1.000E-01 0.500 F 0.333 -0.341 21.0 V 0.70 -0.45 c 691 1.20 Yes Yes
2006BA148 O C H 2006-03-04.13286 1.000E-05 09:33:35.140 1.500E-01 0.500 F 0.484 0.126 +13° 04' 14.70" 1.000E-01 0.500 F 0.333 -0.038 c 691 0.28 Yes No
2006BA148 O C H 2006-03-04.14907 1.000E-05 09:33:33.700 1.500E-01 0.500 F 0.484 0.337 +13° 04' 16.80" 1.000E-01 0.500 F 0.333 -0.324 21.5 V 0.70 0.05 c 691 0.96 Yes Yes
2010LR68 O C 2006-03-04.22468 1.000E-05 11:13:43.220 1.500E-01 0.500 F 0.484 -0.475 +11° 07' 25.90" 1.000E-01 0.500 F 0.328 -0.253 c 691 1.09 Yes No
2010LR68 O C 2006-03-04.24198 1.000E-05 11:13:42.070 1.500E-01 0.500 F 0.484 -0.353 +11° 07' 34.20" 1.000E-01 0.500 F 0.328 0.261 c 691 0.90 Yes No
2010LR68 O C 2006-03-04.25931 1.000E-05 11:13:40.900 1.500E-01 0.500 F 0.484 -0.469 +11° 07' 41.70" 1.000E-01 0.500 F 0.328 -0.028 c 691 0.96 Yes No
2006EY O C 2006-03-04.26888 1.000E-05 11:21:58.250 1.500E-01 0.500 F 0.476 -0.202 +08° 41' 24.20" 1.000E-01 0.500 F -0.022 -0.149 21.3 V 0.70 0.27 c 691 0.52 Yes Yes
2006EY O C 2006-03-04.28616 1.000E-05 11:21:58.490 1.500E-01 0.500 F 0.476 0.189 +08° 40' 44.50" 1.000E-01 0.500 F -0.022 -0.757 21.2 V 0.70 0.17 c 691 1.68 Yes Yes
2006DN O C t 2006-03-04.28858 1.000E-05 11:27:55.480 1.500E-01 0.500 F 0.547 -0.079 +09° 18' 48.40" 1.000E-01 0.500 F 0.275 -0.218 18.4 V 0.70 -0.04 c 691 0.47 Yes Yes
2006EY O C 2006-03-04.30342 1.000E-05 11:21:58.660 1.500E-01 0.500 F 0.478 -0.220 +08° 40' 05.80" 1.000E-01 0.500 F 0.139 -0.413 20.9 V 0.70 -0.13 c 691 0.97 Yes Yes
2006DN O C t 2006-03-04.30584 1.000E-05 11:28:02.580 1.500E-01 0.500 F 0.547 0.021 +09° 18' 18.40" 1.000E-01 0.500 F 0.275 -0.446 18.3 V 0.70 -0.14 c 691 0.90 Yes Yes
2000GU127 O C H 2006-03-04.32988 1.000E-05 12:07:11.430 1.500E-01 0.500 F 0.515 0.310 -00° 30' 28.90" 1.000E-01 0.500 F 0.438 0.170 21.2 V 0.70 0.13 c 691 0.71 Yes Yes
2000GU127 O C H 2006-03-04.34727 1.000E-05 12:07:10.120 1.500E-01 0.500 F 0.515 0.291 -00° 30' 16.70" 1.000E-01 0.500 F 0.438 0.123 21.9 V 0.70 0.83 c 691 0.63 Yes Yes
2000GU127 O C H 2006-03-04.36466 1.000E-05 12:07:08.740 1.500E-01 0.500 F 0.515 -0.757 -00° 30' 04.40" 1.000E-01 0.500 F 0.438 0.170 20.9 V 0.70 -0.17 c 691 1.55 Yes Yes
2004RY109 O C 2006-03-04.38405 1.000E-05 12:25:37.460 1.500E-01 0.500 F 0.512 -0.332 -05° 04' 00.90" 1.000E-01 0.500 F 0.337 0.029 c 691 0.68 Yes No
2004RY109 O C 2006-03-04.40139 1.000E-05 12:25:35.520 1.500E-01 0.500 F 0.512 -0.280 -05° 04' 14.10" 1.000E-01 0.500 F 0.337 0.198 c 691 0.70 Yes No
2004RY109 O C 2006-03-04.41871 1.000E-05 12:25:33.570 1.500E-01 0.500 F 0.512 -0.408 -05° 04' 27.60" 1.000E-01 0.500 F 0.337 0.044 c 691 0.83 Yes No
2006EW52 O C 2006-03-05.15820 1.000E-05 10:36:30.960 1.500E-01 0.500 F 0.471 -0.895 +09° 28' 56.30" 1.000E-01 0.500 F 0.268 -0.128 21.2 V 0.70 0.32 c 691 1.85 Yes Yes
2004LA12 O C 2006-03-05.15820 1.000E-05 10:39:42.220 1.500E-01 0.500 F 0.303 0.110 +09° 01' 30.00" 1.000E-01 0.500 F 0.349 0.168 20.9 V 0.70 0.10 c 691 0.40 Yes Yes
2006EW52 O C 2006-03-05.17554 1.000E-05 10:36:28.160 1.500E-01 0.500 F 0.471 -0.047 +09° 28' 45.20" 1.000E-01 0.500 F 0.268 -0.437 21.2 V 0.70 0.32 c 691 0.89 Yes Yes
2004LA12 O C 2006-03-05.17554 1.000E-05 10:39:41.240 1.500E-01 0.500 F 0.303 0.294 +09° 01' 39.90" 1.000E-01 0.500 F 0.349 0.046 20.7 V 0.70 -0.10 c 691 0.60 Yes Yes
2006EW52 O C 2006-03-05.19287 1.000E-05 10:36:25.250 1.500E-01 0.500 F 0.471 -0.655 +09° 28' 33.80" 1.000E-01 0.500 F 0.268 -1.016 20.8 V 0.70 -0.09 c 691 2.44 Yes Yes
2004LA12 O C 2006-03-05.19287 1.000E-05 10:39:40.210 1.500E-01 0.500 F 0.303 -0.248 +09° 01' 49.60" 1.000E-01 0.500 F 0.349 -0.265 20.7 V 0.70 -0.10 c 691 0.73 Yes Yes
2006DT63 O C 2006-03-05.32693 1.000E-05 12:02:40.570 1.500E-01 0.500 F 0.474 -0.119 -05° 20' 35.70" 1.000E-01 0.500 F 0.377 -0.274 20.7 V 0.70 -0.15 c 691 0.62 Yes Yes
2006DT63 O C 2006-03-05.34427 1.000E-05 12:02:41.000 1.500E-01 0.500 F 0.474 -0.122 -05° 21' 01.40" 1.000E-01 0.500 F 0.377 -0.254 21.0 V 0.70 0.15 c 691 0.58 Yes Yes
2006DT63 O C 2006-03-05.36158 1.000E-05 12:02:41.420 1.500E-01 0.500 F 0.485 -0.235 -05° 21' 27.20" 1.000E-01 0.500 F 0.277 -0.311 20.7 V 0.70 -0.15 c 691 0.80 Yes Yes
2000PO30 O C 2006-03-05.43295 1.000E-05 12:45:56.190 1.500E-01 0.500 F 0.504 -0.368 -07° 44' 26.90" 1.000E-01 0.500 F 0.405 -0.439 21.6 V 0.70 0.16 c 691 1.15 Yes Yes
2000PO30 O C 2006-03-05.45026 1.000E-05 12:45:54.990 1.500E-01 0.500 F 0.504 0.096 -07° 44' 17.50" 1.000E-01 0.500 F 0.405 -0.331 21.1 V 0.70 -0.34 c 691 0.69 Yes Yes
2000PO30 O C 2006-03-05.46755 1.000E-05 12:45:53.730 1.500E-01 0.500 F 0.504 -0.378 -07° 44' 07.90" 1.000E-01 0.500 F 0.405 -0.027 21.3 V 0.70 -0.14 c 691 0.76 Yes Yes
2006EV52 O C 2006-03-06.30688 1.000E-05 11:53:50.990 1.500E-01 0.500 F 0.435 0.588 +02° 56' 18.00" 1.000E-01 0.500 F 0.321 -0.685 21.4 V 0.70 0.33 c 691 1.81 Yes Yes
2006DZ169 O C 2006-03-06.31175 1.000E-05 12:11:02.650 1.500E-01 0.500 F 0.611 -0.161 +03° 46' 40.60" 1.000E-01 0.500 F 0.418 -0.160 c 691 0.46 Yes No
2006FJ9 O C 2006-03-06.31429 1.000E-05 11:57:32.080 1.500E-01 0.500 F 0.527 -0.123 +01° 06' 13.80" 1.000E-01 0.500 F 0.413 -0.041 c 691 0.26 Yes No
2006EV52 O C 2006-03-06.32424 1.000E-05 11:53:49.820 1.500E-01 0.500 F 0.435 -0.054 +02° 56' 28.80" 1.000E-01 0.500 F 0.321 -0.224 21.4 V 0.70 0.33 c 691 0.46 Yes Yes
2006DZ169 O C 2006-03-06.32911 1.000E-05 12:11:01.460 1.500E-01 0.500 F 0.611 -0.319 +03° 46' 45.50" 1.000E-01 0.500 F 0.418 -0.176 c 691 0.73 Yes No
2006FJ9 O C 2006-03-06.33164 1.000E-05 11:57:31.110 1.500E-01 0.500 F 0.527 0.125 +01° 06' 25.20" 1.000E-01 0.500 F 0.413 -0.841 c 691 1.70 Yes No
2006EV52 O C 2006-03-06.34158 1.000E-05 11:53:48.640 1.500E-01 0.500 F 0.435 -0.854 +02° 56' 39.20" 1.000E-01 0.500 F 0.321 -0.150 21.2 V 0.70 0.13 c 691 1.74 Yes Yes
2006DZ169 O C 2006-03-06.34645 1.000E-05 12:11:00.290 1.500E-01 0.500 F 0.611 -0.173 +03° 46' 50.80" 1.000E-01 0.500 F 0.418 0.218 c 691 0.56 Yes No
2006FJ9 O C 2006-03-06.34898 1.000E-05 11:57:30.100 1.500E-01 0.500 F 0.527 -0.205 +01° 06' 38.20" 1.000E-01 0.500 F 0.413 -0.038 c 691 0.42 Yes No
2000GU127 O C 2006-03-06.35897 1.000E-05 12:04:38.880 1.500E-01 0.500 F 0.400 0.143 -00° 05' 57.60" 1.000E-01 0.500 F 0.461 -0.672 c 691 1.38 Yes No
2000GE2 O C H 2006-03-06.35897 1.000E-05 12:09:30.880 1.500E-01 0.500 F 0.576 0.251 -00° 59' 26.60" 1.000E-01 0.500 F 0.330 0.221 21.0 V 0.70 0.52 c 691 0.67 Yes Yes
2000GU127 O C 2006-03-06.37668 1.000E-05 12:04:37.450 1.500E-01 0.500 F 0.400 0.046 -00° 05' 44.10" 1.000E-01 0.500 F 0.461 -0.400 c 691 0.81 Yes No
2000GE2 O C H 2006-03-06.37668 1.000E-05 12:09:29.290 1.500E-01 0.500 F 0.576 -0.663 -00° 59' 21.30" 1.000E-01 0.500 F 0.330 -0.129 20.9 V 0.70 0.42 c 691 1.35 Yes Yes
2000GU127 O C 2006-03-06.39396 1.000E-05 12:04:36.040 1.500E-01 0.500 F 0.400 -0.267 -00° 05' 30.70" 1.000E-01 0.500 F 0.461 0.086 c 691 0.56 Yes No
2004EP20 O C 2006-03-08.11253 1.000E-05 09:28:23.860 1.500E-01 0.500 F 0.430 -0.413 +13° 17' 27.10" 1.000E-01 0.500 F 0.285 0.090 19.6 V 0.70 0.34 c 691 0.85 Yes Yes
2004EP20 O C 2006-03-08.12543 1.000E-05 09:28:22.470 1.500E-01 0.500 F 0.430 -0.183 +13° 17' 49.50" 1.000E-01 0.500 F 0.285 0.064 19.7 V 0.70 0.44 c 691 0.39 Yes Yes
2004EP20 O C 2006-03-08.13831 1.000E-05 09:28:21.030 1.500E-01 0.500 F 0.325 -0.558 +13° 18' 10.20" 1.000E-01 0.500 F 0.306 -1.625 19.1 V 0.70 -0.16 c 691 3.43 No Yes
2004HK33 O C H 2006-03-08.21128 1.000E-05 11:18:25.760 1.500E-01 0.500 F 0.465 0.099 +12° 41' 05.00" 1.000E-01 0.500 F 0.447 -0.492 c 691 1.01 Yes No
2004HK33 O C H 2006-03-08.23149 1.000E-05 11:18:24.290 1.500E-01 0.500 F 0.465 0.793 +12° 41' 15.80" 1.000E-01 0.500 F 0.447 -0.269 c 691 1.68 Yes No
2006DB1 O C 2006-03-09.21515 1.000E-05 11:20:24.170 1.500E-01 0.500 F 0.422 -0.122 +01° 05' 07.00" 1.000E-01 0.500 F 0.302 -0.173 c 691 0.45 Yes No
2006DB1 O C 2006-03-09.23247 1.000E-05 11:20:23.530 1.500E-01 0.500 F 0.422 0.002 +01° 04' 29.40" 1.000E-01 0.500 F 0.302 -0.210 c 691 0.44 Yes No
2006DB1 O C 2006-03-09.24979 1.000E-05 11:20:22.860 1.500E-01 0.500 F 0.422 -0.166 +01° 03' 52.00" 1.000E-01 0.500 F 0.302 -0.059 c 691 0.37 Yes No
2005NJ1 O C H 2006-03-09.29301 1.000E-05 11:25:50.690 1.500E-01 0.500 F 0.453 0.097 -03° 35' 19.40" 1.000E-01 0.500 F 0.299 -0.522 c 691 1.08 Yes No
2005NJ1 O C H 2006-03-09.31040 1.000E-05 11:25:48.940 1.500E-01 0.500 F 0.453 -0.494 -03° 35' 09.80" 1.000E-01 0.500 F 0.299 0.212 20.6 V 0.70 -0.31 c 691 1.09 Yes Yes
2006DT63 O C 2006-03-09.32917 1.000E-05 12:04:51.530 1.500E-01 0.500 F 0.517 0.126 -06° 57' 07.60" 1.000E-01 0.500 F 0.233 0.130 c 691 0.37 Yes No
2006DT63 O C 2006-03-09.36760 1.000E-05 12:04:52.220 1.500E-01 0.500 F 0.517 -0.134 -06° 58' 02.20" 1.000E-01 0.500 F 0.233 -0.298 c 691 0.68 Yes No
2006DT63 O C 2006-03-09.38488 1.000E-05 12:04:52.530 1.500E-01 0.500 F 0.517 -0.278 -06° 58' 26.20" 1.000E-01 0.500 F 0.233 -0.012 c 691 0.57 Yes No
2004VD17 O C 2006-03-09.40649 1.000E-05 12:30:39.510 1.500E-01 0.500 F 0.655 -0.209 -10° 44' 47.60" 1.000E-01 0.500 F 0.465 -0.267 c 691 0.68 Yes No
2004VD17 O C 2006-03-09.42386 1.000E-05 12:30:38.010 1.500E-01 0.500 F 0.655 -0.301 -10° 44' 40.70" 1.000E-01 0.500 F 0.465 0.025 c 691 0.61 Yes No
2004VD17 O C 2006-03-09.44120 1.000E-05 12:30:36.540 1.500E-01 0.500 F 0.655 -0.012 -10° 44' 34.00" 1.000E-01 0.500 F 0.465 0.099 c 691 0.20 Yes No
2000PO30 O C 2006-03-09.45030 1.000E-05 12:41:10.160 1.500E-01 0.500 F 0.638 0.268 -07° 06' 53.10" 1.000E-01 0.500 F 0.254 -0.028 21.3 V 0.70 -0.06 c 691 0.55 Yes Yes
2000PO30 O C 2006-03-09.46759 1.000E-05 12:41:08.830 1.500E-01 0.500 F 0.638 0.216 -07° 06' 43.00" 1.000E-01 0.500 F 0.254 -0.104 21.2 V 0.70 -0.16 c 691 0.49 Yes Yes
2000PO30 O C 2006-03-09.48492 1.000E-05 12:41:07.510 1.500E-01 0.500 F 0.638 0.315 -07° 06' 32.30" 1.000E-01 0.500 F 0.254 0.383 21.4 V 0.70 0.04 c 691 1.00 Yes Yes
2006FJ O C 2006-03-23.31647 1.000E-05 14:06:26.850 1.500E-01 0.500 F 0.511 0.272 -07° 09' 12.30" 1.000E-01 0.500 F 0.331 0.011 20.3 V 0.70 0.17 c 691 0.56 Yes Yes
2006FJ O C 2006-03-23.33379 1.000E-05 14:06:25.060 1.500E-01 0.500 F 0.511 -0.250 -07° 08' 01.90" 1.000E-01 0.500 F 0.331 0.727 20.4 V 0.70 0.27 c 691 1.55 Yes Yes
2006FJ O C 2006-03-23.35231 1.000E-05 14:06:23.210 1.500E-01 0.500 F 0.511 0.255 -07° 06' 47.80" 1.000E-01 0.500 F 0.331 0.275 20.1 V 0.70 -0.02 c 691 0.76 Yes Yes
2006KZ37 O C 2006-03-23.48316 1.000E-05 16:33:29.920 1.500E-01 0.500 F 0.300 0.009 +21° 31' 08.90" 1.000E-01 0.500 F 0.239 0.081 20.7 V 0.70 -0.18 c 691 0.16 Yes Yes
2006KZ37 O C 2006-03-23.49808 1.000E-05 16:33:30.810 1.500E-01 0.500 F 0.300 -0.370 +21° 31' 22.40" 1.000E-01 0.500 F 0.239 0.007 21.1 V 0.70 0.22 c 691 0.74 Yes Yes
2006KZ37 O C 2006-03-23.51299 1.000E-05 16:33:31.710 1.500E-01 0.500 F 0.300 -0.594 +21° 31' 34.90" 1.000E-01 0.500 F 0.239 -1.028 20.6 V 0.70 -0.28 c 691 2.38 Yes Yes
1990MF O C 2006-03-25.23264 1.000E-05 13:11:26.400 1.500E-01 0.500 F 0.377 -0.124 -08° 48' 52.20" 1.000E-01 0.500 F -0.050 -0.361 21.2 V 0.70 0.16 c 691 0.76 Yes Yes
2005ST1 O C 2006-03-25.23264 1.000E-05 13:10:36.840 1.500E-01 0.500 F 0.349 0.013 -08° 20' 30.30" 1.000E-01 0.500 F 0.001 -0.079 19.8 V 0.70 0.40 c 691 0.16 Yes Yes
1990MF O C 2006-03-25.25020 1.000E-05 13:11:25.070 1.500E-01 0.500 F 0.377 -0.199 -08° 48' 43.50" 1.000E-01 0.500 F -0.050 -0.110 20.8 V 0.70 -0.24 c 691 0.45 Yes Yes
2005ST1 O C 2006-03-25.25020 1.000E-05 13:10:32.530 1.500E-01 0.500 F 0.349 -0.383 -08° 21' 00.40" 1.000E-01 0.500 F 0.001 -0.058 19.6 V 0.70 0.20 c 691 0.78 Yes Yes
2005ST1 O C 2006-03-25.26776 1.000E-05 13:10:28.250 1.500E-01 0.500 F 0.349 -0.188 -08° 21' 30.50" 1.000E-01 0.500 F 0.001 -0.084 19.5 V 0.70 0.11 c 691 0.41 Yes Yes
1990MF O C 2006-03-25.26776 1.000E-05 13:11:23.720 1.500E-01 0.500 F 0.377 -0.507 -08° 48' 35.00" 1.000E-01 0.500 F -0.050 -0.074 21.0 V 0.70 -0.04 c 691 1.03 Yes Yes
Toutatis O C 2006-03-25.35747 1.000E-05 14:08:08.680 1.500E-01 0.500 F 0.470 -0.160 -12° 20' 15.30" 1.000E-01 0.500 F 0.304 -0.195 20.9 V 0.70 -0.12 c 691 0.50 Yes Yes
2006FV33 O C 2006-03-25.36733 1.000E-05 14:19:15.560 1.500E-01 0.500 F 0.318 -0.128 -13° 44' 49.80" 1.000E-01 0.500 F 0.405 -0.126 20.9 V 0.70 -0.27 c 691 0.37 Yes Yes
Toutatis O C 2006-03-25.37476 1.000E-05 14:08:07.950 1.500E-01 0.500 F 0.470 0.424 -12° 20' 11.10" 1.000E-01 0.500 F 0.304 -0.033 21.0 V 0.70 -0.02 c 691 0.85 Yes Yes
2006FV33 O C 2006-03-25.38460 1.000E-05 14:19:14.460 1.500E-01 0.500 F 0.318 -0.011 -13° 44' 19.20" 1.000E-01 0.500 F 0.405 -0.159 21.3 V 0.70 0.13 c 691 0.32 Yes Yes
Toutatis O C 2006-03-25.39204 1.000E-05 14:08:07.140 1.500E-01 0.500 F 0.470 -0.164 -12° 20' 07.10" 1.000E-01 0.500 F 0.304 -0.076 21.1 V 0.70 0.08 c 691 0.36 Yes Yes
2006FV33 O C 2006-03-25.40189 1.000E-05 14:19:13.320 1.500E-01 0.500 F 0.318 -0.436 -13° 43' 48.60" 1.000E-01 0.500 F 0.405 -0.261 20.8 V 0.70 -0.37 c 691 1.04 Yes Yes
2005RR6 O C H 2006-03-25.42150 1.000E-05 14:37:24.490 1.500E-01 0.500 F 0.440 0.112 -13° 22' 35.50" 1.000E-01 0.500 F 0.246 -0.014 21.6 V 0.70 -0.10 c 691 0.23 Yes Yes
2005RR6 O C H 2006-03-25.43879 1.000E-05 14:37:23.170 1.500E-01 0.500 F 0.440 0.362 -13° 22' 32.70" 1.000E-01 0.500 F 0.246 -0.329 21.3 V 0.70 -0.40 c 691 0.98 Yes Yes
2005RR6 O C H 2006-03-25.45609 1.000E-05 14:37:21.780 1.500E-01 0.500 F 0.440 -0.402 -13° 22' 30.30" 1.000E-01 0.500 F 0.246 -1.064 21.2 V 0.70 -0.50 c 691 2.28 Yes Yes
Tara O C 2006-03-26.13549 1.000E-05 10:55:58.540 1.500E-01 0.500 F 0.320 -0.021 +09° 40' 03.90" 1.000E-01 0.500 F 0.332 -0.252 18.4 V 0.70 0.27 c 691 0.51 Yes Yes
Tara O C 2006-03-26.15649 1.000E-05 10:55:57.060 1.500E-01 0.500 F 0.320 -0.168 +09° 40' 28.50" 1.000E-01 0.500 F 0.332 -0.118 18.5 V 0.70 0.37 c 691 0.41 Yes Yes
Tara O C 2006-03-26.17749 1.000E-05 10:55:55.590 1.500E-01 0.500 F 0.320 -0.100 +09° 40' 53.00" 1.000E-01 0.500 F 0.332 -0.064 18.7 V 0.70 0.57 c 691 0.24 Yes Yes
2001SD348 O C 2006-03-26.40137 1.000E-05 14:28:19.780 1.500E-01 0.500 F 0.345 -0.261 -16° 04' 06.90" 1.000E-01 0.500 F 0.424 -0.086 20.6 V 0.70 0.01 c 691 0.55 Yes Yes
2001SD348 O C 2006-03-26.41869 1.000E-05 14:28:19.860 1.500E-01 0.500 F 0.345 0.224 -16° 03' 52.40" 1.000E-01 0.500 F 0.424 0.127 20.8 V 0.70 0.21 c 691 0.52 Yes Yes
2001SD348 O C 2006-03-26.43601 1.000E-05 14:28:19.880 1.500E-01 0.500 F 0.345 -0.157 -16° 03' 38.40" 1.000E-01 0.500 F 0.424 -0.201 20.8 V 0.70 0.21 c 691 0.51 Yes Yes
Tara O C 2006-03-29.12549 1.000E-05 10:52:40.490 1.500E-01 0.500 F 0.373 -0.152 +10° 37' 16.20" 1.000E-01 0.500 F 0.272 -0.137 18.5 V 0.70 0.33 c 691 0.41 Yes Yes
1994CN2 O C 2006-03-29.13337 1.000E-05 11:03:40.910 1.500E-01 0.500 F 0.128 -0.025 +08° 41' 01.80" 1.000E-01 0.500 F 0.472 -0.176 20.5 V 0.70 0.89 c 691 0.36 Yes Yes
Tara O C 2006-03-29.14425 1.000E-05 10:52:39.240 1.500E-01 0.500 F 0.373 -0.079 +10° 37' 37.60" 1.000E-01 0.500 F 0.272 -0.102 18.5 V 0.70 0.33 c 691 0.26 Yes Yes
1994CN2 O C 2006-03-29.15214 1.000E-05 11:03:39.490 1.500E-01 0.500 F 0.128 -0.057 +08° 41' 09.90" 1.000E-01 0.500 F 0.472 -0.206 20.3 V 0.70 0.69 c 691 0.43 Yes Yes
Tara O C 2006-03-29.16301 1.000E-05 10:52:37.970 1.500E-01 0.500 F 0.373 -0.247 +10° 37' 58.80" 1.000E-01 0.500 F 0.272 -0.249 19.2 V 0.70 1.03 c 691 0.70 Yes Yes
1994CN2 O C 2006-03-29.17090 1.000E-05 11:03:38.070 1.500E-01 0.500 F 0.128 -0.058 +08° 41' 17.90" 1.000E-01 0.500 F 0.472 -0.317 20.3 V 0.70 0.68 c 691 0.64 Yes Yes
2006FV35 O C 2006-03-29.20414 1.000E-05 12:38:49.930 1.500E-01 0.500 F 0.490 -0.639 +00° 27' 25.60" 1.000E-01 0.500 F 0.321 0.087 21.0 V 0.70 0.64 c 691 1.30 Yes Yes
2006FV35 O C 2006-03-29.22140 1.000E-05 12:38:46.790 1.500E-01 0.500 F 0.490 -0.588 +00° 28' 03.50" 1.000E-01 0.500 F 0.321 0.504 21.2 V 0.70 0.84 c 691 1.56 Yes Yes
2006FV35 O C 2006-03-29.23866 1.000E-05 12:38:43.630 1.500E-01 0.500 F 0.490 -0.674 +00° 28' 40.60" 1.000E-01 0.500 F 0.321 0.116 20.5 V 0.70 0.14 c 691 1.38 Yes Yes
1994CN2 O C 2006-04-02.11779 1.000E-05 10:59:01.210 1.500E-01 0.500 F 0.417 -0.308 +09° 07' 48.20" 1.000E-01 0.500 F 0.269 0.045 20.2 V 0.70 0.47 c 691 0.62 Yes Yes
2000GE2 O C 2006-04-02.12046 1.000E-05 10:58:23.760 1.500E-01 0.500 F 0.423 -0.433 +03° 59' 28.00" 1.000E-01 0.500 F 0.201 -0.044 19.9 V 0.70 0.66 c 691 0.87 Yes Yes
1994CN2 O C 2006-04-02.13618 1.000E-05 10:58:59.950 1.500E-01 0.500 F 0.417 -0.298 +09° 07' 55.20" 1.000E-01 0.500 F 0.269 0.063 20.1 V 0.70 0.37 c 691 0.61 Yes Yes
2000GE2 O C 2006-04-02.13885 1.000E-05 10:58:19.030 1.500E-01 0.500 F 0.423 -0.553 +03° 59' 46.80" 1.000E-01 0.500 F 0.201 -0.045 19.7 V 0.70 0.46 c 691 1.11 Yes Yes
1994CN2 O C 2006-04-02.15457 1.000E-05 10:58:58.690 1.500E-01 0.500 F 0.417 -0.250 +09° 08' 01.80" 1.000E-01 0.500 F 0.269 -0.304 20.0 V 0.70 0.27 c 691 0.79 Yes Yes
2000GE2 O C 2006-04-02.15725 1.000E-05 10:58:14.290 1.500E-01 0.500 F 0.423 -0.543 +04° 00' 05.90" 1.000E-01 0.500 F 0.201 0.257 19.5 V 0.70 0.26 c 691 1.21 Yes Yes
2006GZ O C 2006-04-02.17934 1.000E-05 12:54:03.410 1.500E-01 0.500 F 0.549 -0.066 +02° 13' 24.40" 1.000E-01 0.500 F 0.324 0.348 20.9 V 0.70 0.69 c 691 0.72 Yes Yes
2006GA1 O C 2006-04-02.17934 1.000E-05 12:57:04.860 1.500E-01 0.500 F 0.629 -0.453 +01° 27' 06.30" 1.000E-01 0.500 F 0.519 0.377 20.6 V 0.70 0.74 c 691 1.19 Yes Yes
2006GB1 O C 2006-04-02.17934 1.000E-05 12:58:08.050 1.500E-01 0.500 F 0.476 0.323 +01° 08' 07.80" 1.000E-01 0.500 F 0.410 -0.223 20.5 V 0.70 0.59 c 691 0.90 Yes Yes
2006GC O C 2006-04-02.19170 1.000E-05 12:51:11.240 1.500E-01 0.500 F 0.606 -0.760 -00° 02' 44.30" 1.000E-01 0.500 F 0.403 -0.279 20.2 V 0.70 0.02 c 691 1.67 Yes Yes
2006GZ O C 2006-04-02.19666 1.000E-05 12:54:01.220 1.500E-01 0.500 F 0.549 -0.085 +02° 13' 25.80" 1.000E-01 0.500 F 0.324 -0.232 20.5 V 0.70 0.29 c 691 0.49 Yes Yes
2006GA1 O C 2006-04-02.19666 1.000E-05 12:57:02.650 1.500E-01 0.500 F 0.629 -1.187 +01° 27' 15.80" 1.000E-01 0.500 F 0.519 0.495 20.1 V 0.70 0.24 c 691 2.61 Yes Yes
2006GB1 O C 2006-04-02.19666 1.000E-05 12:58:05.320 1.500E-01 0.500 F 0.476 -0.115 +01° 08' 36.70" 1.000E-01 0.500 F 0.410 -0.246 20.4 V 0.70 0.49 c 691 0.57 Yes Yes
2006GC O C 2006-04-02.20901 1.000E-05 12:51:15.600 1.500E-01 0.500 F 0.606 0.302 -00° 01' 50.60" 1.000E-01 0.500 F 0.403 -0.119 20.5 V 0.70 0.32 c 691 0.67 Yes Yes
2006GZ O C 2006-04-02.21397 1.000E-05 12:53:59.020 1.500E-01 0.500 F 0.549 -0.176 +02° 13' 27.80" 1.000E-01 0.500 F 0.324 -0.205 20.6 V 0.70 0.39 c 691 0.54 Yes Yes
2006GA1 O C 2006-04-02.21397 1.000E-05 12:57:00.530 1.500E-01 0.500 F 0.629 -0.533 +01° 27' 24.50" 1.000E-01 0.500 F 0.519 -0.174 20.1 V 0.70 0.24 c 691 1.14 Yes Yes
2006GB1 O C 2006-04-02.21397 1.000E-05 12:58:02.570 1.500E-01 0.500 F 0.476 -0.305 +01° 09' 05.90" 1.000E-01 0.500 F 0.410 0.021 20.3 V 0.70 0.39 c 691 0.66 Yes Yes
2006GC O C 2006-04-02.22634 1.000E-05 12:51:19.840 1.500E-01 0.500 F 0.606 -0.155 -00° 00' 57.10" 1.000E-01 0.500 F 0.403 -0.336 20.6 V 0.70 0.42 c 691 0.75 Yes Yes
2003MX2 O C 2006-04-02.29404 1.000E-05 14:20:19.850 1.500E-01 0.500 F 0.252 -0.571 -08° 17' 41.80" 1.000E-01 0.500 F 0.304 0.290 21.6 V 0.70 0.43 c 691 1.29 Yes Yes
2006FV33 O C 2006-04-02.29903 1.000E-05 14:10:34.390 1.500E-01 0.500 F 0.357 -0.109 -09° 49' 45.50" 1.000E-01 0.500 F 0.259 -0.108 21.2 V 0.70 0.13 c 691 0.31 Yes Yes
2003MX2 O C 2006-04-02.31767 1.000E-05 14:20:18.680 1.500E-01 0.500 F 0.252 -0.087 -08° 17' 37.10" 1.000E-01 0.500 F 0.304 -0.564 21.0 V 0.70 -0.17 c 691 1.14 Yes Yes
2006FV33 O C 2006-04-02.32267 1.000E-05 14:10:32.620 1.500E-01 0.500 F 0.357 -0.077 -09° 49' 04.20" 1.000E-01 0.500 F 0.259 -0.278 21.0 V 0.70 -0.07 c 691 0.58 Yes Yes
2003MX2 O C 2006-04-02.33499 1.000E-05 14:20:17.780 1.500E-01 0.500 F 0.252 -0.336 -08° 17' 32.40" 1.000E-01 0.500 F 0.304 0.058 21.0 V 0.70 -0.16 c 691 0.68 Yes Yes
2006FV33 O C 2006-04-02.33999 1.000E-05 14:10:31.340 1.500E-01 0.500 F 0.357 0.247 -09° 48' 33.00" 1.000E-01 0.500 F 0.259 0.518 20.8 V 0.70 -0.27 c 691 1.16 Yes Yes
2005RR6 O C 2006-04-02.36508 1.000E-05 14:26:46.550 1.500E-01 0.500 F 0.453 -0.155 -12° 55' 01.40" 1.000E-01 0.500 F 0.349 -0.277 21.2 V 0.70 -0.42 c 691 0.64 Yes Yes
2005RR6 O C 2006-04-02.38236 1.000E-05 14:26:45.090 1.500E-01 0.500 F 0.453 0.513 -12° 54' 57.20" 1.000E-01 0.500 F 0.349 -0.120 21.4 V 0.70 -0.22 c 691 1.06 Yes Yes
2005RR6 O C 2006-04-02.39966 1.000E-05 14:26:43.520 1.500E-01 0.500 F 0.453 -0.398 -12° 54' 52.70" 1.000E-01 0.500 F 0.349 0.317 21.2 V 0.70 -0.42 c 691 1.02 Yes Yes
2006GC1 O C 2006-04-02.41190 1.000E-05 15:19:40.680 1.500E-01 0.500 F 0.391 -0.500 -16° 00' 25.90" 1.000E-01 0.500 F 0.495 0.359 20.3 V 0.70 -0.04 c 691 1.40 Yes Yes
2006GC1 O C 2006-04-02.42684 1.000E-05 15:19:34.720 1.500E-01 0.500 F 0.391 -1.195 -15° 59' 55.80" 1.000E-01 0.500 F 0.495 0.276 21.0 V 0.70 0.66 c 691 2.73 Yes Yes
2006GC1 O C 2006-04-02.44222 1.000E-05 15:19:28.740 1.500E-01 0.500 F 0.391 0.293 -15° 59' 24.80" 1.000E-01 0.500 F 0.495 0.154 21.0 V 0.70 0.66 c 691 0.64 Yes Yes
2004BL86 O C H 2006-04-02.46286 1.000E-05 16:30:21.860 1.500E-01 0.500 F 0.235 -0.178 +21° 14' 22.70" 1.000E-01 0.500 F 0.204 -0.906 21.6 V 0.70 -0.39 c 691 1.85 Yes Yes
2004BL86 O C H 2006-04-02.47778 1.000E-05 16:30:21.380 1.500E-01 0.500 F 0.235 0.366 +21° 14' 38.30" 1.000E-01 0.500 F 0.204 -0.383 21.7 V 0.70 -0.29 c 691 1.06 Yes Yes
2004BL86 O C H 2006-04-02.49271 1.000E-05 16:30:20.850 1.500E-01 0.500 F 0.235 0.222 +21° 14' 53.30" 1.000E-01 0.500 F 0.204 -0.444 21.0 V 0.70 -0.99 c 691 0.99 Yes Yes
2004BL86 O C H 2006-04-06.44912 1.000E-05 16:27:51.890 1.500E-01 0.500 F 0.256 0.396 +22° 20' 03.80" 1.000E-01 0.500 F 0.273 0.295 21.4 V 0.70 -0.57 c 691 0.98 Yes Yes

[1-200] [201-400] [401-600] [601-800] [801-1000] [1001-1200] [1201-1400] [1401-1600] [1601-1800] [1801-2000] [2001-2200] [2201-2400] [2401-2600] [2601-2800] [2801-3000] [3001-3200] [3201-3400] [3401-3600] [3601-3800] [3801-4000] [4001-4200] [4201-4400] [4401-4600] [4601-4800] [4801-5000] [5001-5200] [5201-5400] [5401-5600] [5601-5800] [5801-6000] [6001-6200] [6201-6400] [6401-6600] [6601-6800] [6801-7000] [7001-7200] [7201-7400] [7401-7600] [7601-7800] [7801-8000] [8001-8200] [8201-8400] [8401-8600] [8601-8800] [8801-9000] [9001-9200] [9201-9400] [9401-9600] [9601-9800] [9801-10000] [10001-10200] [10201-10400] [10401-10600] [10601-10800] [10801-11000] [11001-11200] [11201-11400] [11401-11600] [11601-11800] [11801-12000] [12001-12200] [12201-12400] [12401-12600] [12601-12800] [12801-13000] [13001-13200] [13201-13400] [13401-13600] [13601-13800] [13801-14000] [14001-14200] [14201-14400] [14401-14600] [14601-14800] [14801-15000] [15001-15200] [15201-15400] [15401-15600] [15601-15800] [15801-16000] [16001-16200] [16201-16400] [16401-16600] [16601-16800] [16801-17000] [17001-17200] [17201-17400] [17401-17600] [17601-17800] [17801-18000] [18001-18200] [18201-18400] [18401-18600] [18601-18800] [18801-19000] [19001-19200] [19201-19400] [19401-19600] [19601-19800] [19801-20000] [20001-20200] [20201-20400] [20401-20600] [20601-20800] [20801-21000] [21001-21200] [21201-21400] [21401-21600] [21601-21800] [21801-22000] [22001-22200] [22201-22400] [22401-22600] [22601-22800] [22801-23000] [23001-23200] [23201-23400] [23401-23600] [23601-23800] [23801-24000] [24001-24200] [24201-24400] [24401-24600] [24601-24800] [24801-25000] [25001-25200] [25201-25400] [25401-25600] [25601-25800] [25801-26000] [26001-26200] [26201-26400] [26401-26600] [26601-26800] [26801-27000] [27001-27200] [27201-27400] [27401-27600] [27601-27800] [27801-28000] [28001-28200] [28201-28400] [28401-28600] [28601-28800] [28801-29000] [29001-29200] [29201-29400] [29401-29600] [29601-29800] [29801-30000] [30001-30200] [30201-30400] [30401-30600] [30601-30800] [30801-31000] [31001-31200] [31201-31400] [31401-31600] [31601-31800] [31801-32000] [32001-32200] [32201-32400] [32401-32600] [32601-32800] [32801-33000] [33001-33200] [33201-33400] [33401-33600] [33601-33800] [33801-34000] [34001-34200] [34201-34400] [34401-34600] [34601-34800] [34801-35000] [35001-35200] [35201-35400] [35401-35600] [35601-35800] [35801-36000] [36001-36200] [36201-36400] [36401-36600] [36601-36800] [36801-37000] [37001-37200] [37201-37400] [37401-37600] [37601-37800] [37801-38000] [38001-38200] [38201-38400] [38401-38600] [38601-38800] [38801-39000] [39001-39200] [39201-39400] [39401-39600] [39601-39800] [39801-40000] [40001-40200] [40201-40400] [40401-40600] [40601-40800] [40801-41000] [41001-41200] [41201-41400] [41401-41600] [41601-41800] [41801-42000] [42001-42200] [42201-42400] [42401-42600] [42601-42800] [42801-43000] [43001-43200] [43201-43400] [43401-43600] [43601-43800] [43801-44000] [44001-44200] [44201-44400] [44401-44600] [44601-44800] [44801-45000] [45001-45200] [45201-45400] [45401-45600] [45601-45800] [45801-46000] [46001-46200] [46201-46400] [46401-46600] [46601-46800] [46801-47000] [47001-47200] [47201-47400] [47401-47600] [47601-47800] [47801-48000] [48001-48200] [48201-48400] [48401-48600] [48601-48800] [48801-49000] [49001-49200] [49201-49400] [49401-49600] [49601-49800] [49801-50000] [50001-50200] [50201-50388]